Terminal Aerodrome Forecast
Issued by NWS Tuscon, AZ

Home | Current Version | Previous Version | Text Only | Print | Product List | Glossary On
Versions: 1 2 3 4 5 6 7 8 9 10 11 12 13 14 15
197
FTUS45 KTWC 311129
TAFTUS
TAF
KTUS 311129Z 3112/0112 13012KT P6SM SCT090
     FM312000 12011KT P6SM VCSH SCT060 BKN100
     FM010300 11009KT P6SM FEW060 BKN150=

USA.gov is the U.S. government's official web portal to all federal, state and local government web resources and services.